Ternholm — OWIM2 — position and weather

sailwx.info

Track history (hours):
 
Tides and Currents Weather Stations Pressure Air Temp Water Temp Dewpoint Dewpoint Depression Visibility Wind Speed Wind Dir Waves Ship Positions

Ternholm

Last reported at 2017-Nov-19 05:29 UTC. Time now 2017-Nov-22 16:44 UTC.
Position N 60°25' E 019°02'.

Length 141 m; draft 8.5 m.

Type: Tanker. MMSI: 219076000.

Date/timePositionNaut miles runAvg speedWind from/ knotsBaromVisibWave heightAir tempDewpointWater temp
2017-Nov-19 05:29N 60°25' E 019°02'710.9
2017-Nov-19 04:51N 60°18' E 019°01'411.3
2017-Nov-19 04:30N 60°14' E 019°03'611.2
2017-Nov-19 04:00N 60°09' E 019°08'611.8
2017-Nov-19 03:30N 60°05' E 019°16'611.7
2017-Nov-19 03:00N 60°00' E 019°24'711.8
2017-Nov-19 02:23N 59°55' E 019°33'711.7
2017-Nov-19 01:50N 59°50' E 019°42'24711.1
2017-Nov-18 03:31N 56°02' E 016°43'011.9
2017-Nov-18 03:30N 56°02' E 016°43'611.8
2017-Nov-18 03:00N 55°59' E 016°34'611.8
2017-Nov-18 02:30N 55°57' E 016°24'611.8
2017-Nov-18 02:00N 55°54' E 016°15'611.8
2017-Nov-18 01:30N 55°51' E 016°06'611.8
2017-Nov-18 01:00N 55°47' E 015°57'611.8
2017-Nov-18 00:30N 55°44' E 015°48'611.8
2017-Nov-18 00:00N 55°41' E 015°40'611.8
2017-Nov-17 23:30N 55°39' E 015°30'611.8
2017-Nov-17 23:00N 55°36' E 015°21'611.8
2017-Nov-17 22:30N 55°34' E 015°11'611.8
2017-Nov-17 22:00N 55°31' E 015°02'611.8
2017-Nov-17 21:27N 55°28' E 014°52'511.8
2017-Nov-17 21:00N 55°25' E 014°44'611.6
2017-Nov-17 20:30N 55°22' E 014°36'611.8
2017-Nov-17 20:00N 55°17' E 014°31'611.8
2017-Nov-17 19:30N 55°12' E 014°24'611.8
2017-Nov-17 19:00N 55°07' E 014°17'611.8
2017-Nov-17 18:30N 55°03' E 014°11'5511.6
2017-Nov-17 13:46N 54°44' E 012°41'311.8
2017-Nov-17 13:30N 54°42' E 012°37'611.7
2017-Nov-17 13:00N 54°39' E 012°29'1411.4
2017-Nov-17 11:45N 54°27' E 012°14'311.7
2017-Nov-17 11:30N 54°25' E 012°11'611.5
2017-Nov-17 11:00N 54°25' E 012°01'1111.6
2017-Nov-17 10:06N 54°26' E 011°43'411.8
2017-Nov-17 09:48N 54°27' E 011°37'311.8
2017-Nov-17 09:30N 54°29' E 011°32'611.8
2017-Nov-17 09:00N 54°32' E 011°23'611.8
2017-Nov-17 08:31N 54°34' E 011°14'612.1
2017-Nov-17 08:00N 54°37' E 011°05'612.1
2017-Nov-17 07:30N 54°40' E 010°56'510.8
2017-Nov-17 07:00N 54°45' E 010°51'612.1
2017-Nov-17 06:30N 54°51' E 010°52'611.6
2017-Nov-17 06:00N 54°56' E 010°56'611.3
2017-Nov-17 05:30N 55°01' E 011°01'611.9
2017-Nov-17 05:00N 55°07' E 011°02'611.3
2017-Nov-17 04:30N 55°12' E 011°06'711.8
2017-Nov-17 03:56N 55°19' E 011°02'10110.4
2017-Nov-16 18:14N 56°57' E 011°45'311.2
2017-Nov-16 17:59N 56°60' E 011°43'511.2
2017-Nov-16 17:30N 57°05' E 011°39'611.6
2017-Nov-16 16:59N 57°10' E 011°36'611.5
2017-Nov-16 16:30N 57°16' E 011°32'511.1
2017-Nov-16 16:00N 57°21' E 011°32'611.2
2017-Nov-16 15:30N 57°27' E 011°34'510.6
2017-Nov-16 15:00N 57°32' E 011°35'510.0
2017-Nov-16 14:30N 57°36' E 011°39'510.3
2017-Nov-16 14:00N 57°40' E 011°47'3 6.9
2017-Nov-16 13:30N 57°41' E 011°52'0 0.0
2017-Nov-16 12:58N 57°41' E 011°52'0 0.0
2017-Nov-16 12:28N 57°41' E 011°52'0 0.0
2017-Nov-16 11:58N 57°41' E 011°52'0 0.0
2017-Nov-16 11:28N 57°41' E 011°52'0 0.0
2017-Nov-16 10:58N 57°41' E 011°52'0 0.0
2017-Nov-16 10:28N 57°41' E 011°52'0 0.0
2017-Nov-16 09:58N 57°41' E 011°52'0 0.0
2017-Nov-16 09:28N 57°41' E 011°52'0 0.0
2017-Nov-16 08:58N 57°41' E 011°52'0 0.0
2017-Nov-16 08:28N 57°41' E 011°52'0 0.0
2017-Nov-16 07:58N 57°41' E 011°52'0 0.0
2017-Nov-16 07:28N 57°41' E 011°52'0 0.0
2017-Nov-16 06:58N 57°41' E 011°52'0 0.0
2017-Nov-16 06:28N 57°41' E 011°52'0 0.0
2017-Nov-16 05:58N 57°41' E 011°52'0 0.0
2017-Nov-16 05:28N 57°41' E 011°52'0 0.0
2017-Nov-16 04:58N 57°41' E 011°52'0 0.0
2017-Nov-16 04:28N 57°41' E 011°52'0 0.0
2017-Nov-16 03:58N 57°41' E 011°52'0 0.0
2017-Nov-16 03:28N 57°41' E 011°52'0 0.0
2017-Nov-16 02:58N 57°41' E 011°52'0 0.0
2017-Nov-16 02:28N 57°41' E 011°52'0 0.0
2017-Nov-16 01:58N 57°41' E 011°52'0 0.0
2017-Nov-16 01:28N 57°41' E 011°52'0 0.0
2017-Nov-16 00:58N 57°41' E 011°52'0 0.0
2017-Nov-16 00:28N 57°41' E 011°52'0 0.0
2017-Nov-15 23:58N 57°41' E 011°52'0 0.0
2017-Nov-15 23:28N 57°41' E 011°52'0 0.0
2017-Nov-15 22:58N 57°41' E 011°52'0 0.0
2017-Nov-15 22:28N 57°41' E 011°52'0 0.0
2017-Nov-15 21:58N 57°41' E 011°52'0 0.0
2017-Nov-15 21:28N 57°41' E 011°52'0 0.0
2017-Nov-15 20:58N 57°41' E 011°52'0 0.0
2017-Nov-15 20:28N 57°41' E 011°52'0 0.0
2017-Nov-15 19:58N 57°41' E 011°52'0 0.0
2017-Nov-15 19:28N 57°41' E 011°52'0 0.0
2017-Nov-15 18:58N 57°41' E 011°52'0 0.0
2017-Nov-15 18:28N 57°41' E 011°52'0 0.0
2017-Nov-15 17:58N 57°41' E 011°52'0 0.0
2017-Nov-15 17:28N 57°41' E 011°52'0 0.0
2017-Nov-15 16:58N 57°41' E 011°52'0 0.0
2017-Nov-15 16:28N 57°41' E 011°52'0 0.0
2017-Nov-15 15:58N 57°41' E 011°52'0 0.0
2017-Nov-15 15:31N 57°41' E 011°52'0 0.0
2017-Nov-15 15:01N 57°41' E 011°52'0 0.0
2017-Nov-15 14:30N 57°41' E 011°52'0 0.0
2017-Nov-15 14:00N 57°41' E 011°52'0 0.0
2017-Nov-15 13:30N 57°41' E 011°52'0 0.0
2017-Nov-15 13:00N 57°41' E 011°52'0 0.0
2017-Nov-15 12:30N 57°41' E 011°52'0 0.0
2017-Nov-15 12:00N 57°41' E 011°52'0 0.0
2017-Nov-15 11:30N 57°41' E 011°52'0 0.0
2017-Nov-15 11:00N 57°41' E 011°52'0 0.0
2017-Nov-15 10:30N 57°41' E 011°52'0 0.0
2017-Nov-15 10:00N 57°41' E 011°52'0 0.0
2017-Nov-15 09:30N 57°41' E 011°52'0 0.0
2017-Nov-15 09:00N 57°41' E 011°52'0 0.0
2017-Nov-15 08:30N 57°41' E 011°52'0 0.0
2017-Nov-15 08:00N 57°41' E 011°52'0 0.0
2017-Nov-15 07:30N 57°41' E 011°52'0 0.0
2017-Nov-15 07:00N 57°41' E 011°52'0 0.0
2017-Nov-15 06:30N 57°41' E 011°52'0 0.0
2017-Nov-15 06:00N 57°41' E 011°52'0 0.0
2017-Nov-15 05:30N 57°41' E 011°52'0 0.0
2017-Nov-15 05:00N 57°41' E 011°52'0 0.0
2017-Nov-15 04:27N 57°41' E 011°52'0 0.0
2017-Nov-15 04:00N 57°41' E 011°52'0 0.0
2017-Nov-15 03:30N 57°41' E 011°52'0 0.0
2017-Nov-15 03:00N 57°41' E 011°52'0 0.0
2017-Nov-15 02:30N 57°41' E 011°52'0 0.0
2017-Nov-15 02:00N 57°41' E 011°52'0 0.0
2017-Nov-15 01:27N 57°41' E 011°52'0 0.0
2017-Nov-15 01:00N 57°41' E 011°52'0 0.0
2017-Nov-15 00:30N 57°41' E 011°52'0 0.0
2017-Nov-15 00:00N 57°41' E 011°52'0 0.0
2017-Nov-14 23:30N 57°41' E 011°52'0 0.0
2017-Nov-14 23:01N 57°41' E 011°52'0 0.4
2017-Nov-14 22:31N 57°41' E 011°53'0 0.0
2017-Nov-14 21:59N 57°41' E 011°53'0 0.0
2017-Nov-14 21:29N 57°41' E 011°53'0 0.0
2017-Nov-14 20:59N 57°41' E 011°53'0 0.0
2017-Nov-14 20:29N 57°41' E 011°53'0 0.0
2017-Nov-14 19:59N 57°41' E 011°53'0 0.0
2017-Nov-14 19:29N 57°41' E 011°53'0 0.0
2017-Nov-14 18:59N 57°41' E 011°53'0 0.0
2017-Nov-14 18:29N 57°41' E 011°53'0 0.0
2017-Nov-14 17:58N 57°41' E 011°53'0 0.0
2017-Nov-14 17:29N 57°41' E 011°53'0 0.0
2017-Nov-14 16:59N 57°41' E 011°53'0 0.0
2017-Nov-14 16:28N 57°41' E 011°53'0 0.0
2017-Nov-14 15:58N 57°41' E 011°53'0 0.0
2017-Nov-14 15:28N 57°41' E 011°53'0 0.0
2017-Nov-14 14:58N 57°41' E 011°53'0 0.0
2017-Nov-14 14:28N 57°41' E 011°53'0 0.0
2017-Nov-14 13:58N 57°41' E 011°53'0 0.0
2017-Nov-14 13:28N 57°41' E 011°53'0 0.0
2017-Nov-14 12:58N 57°41' E 011°53'0 0.0
2017-Nov-14 12:28N 57°41' E 011°53'0 0.0
2017-Nov-14 11:58N 57°41' E 011°53'0 0.0
2017-Nov-14 11:28N 57°41' E 011°53'0 0.0
2017-Nov-14 10:58N 57°41' E 011°53'0 0.0
2017-Nov-14 10:28N 57°41' E 011°53'0 0.0
2017-Nov-14 09:58N 57°41' E 011°53'0 0.0
2017-Nov-14 09:28N 57°41' E 011°53'0 0.0
2017-Nov-14 08:58N 57°41' E 011°53'0 0.0
2017-Nov-14 08:28N 57°41' E 011°53'0 0.0
2017-Nov-14 07:58N 57°41' E 011°53'0 0.0
2017-Nov-14 07:28N 57°41' E 011°53'0 0.0
2017-Nov-14 06:58N 57°41' E 011°53'0 0.0
2017-Nov-14 06:28N 57°41' E 011°53'0 0.0
2017-Nov-14 05:58N 57°41' E 011°53'0 0.0
2017-Nov-14 05:28N 57°41' E 011°53'0 0.0
2017-Nov-14 04:58N 57°41' E 011°53'0 0.0
2017-Nov-14 04:28N 57°41' E 011°53'0 0.0
2017-Nov-14 03:58N 57°41' E 011°53'0 0.0
2017-Nov-14 03:28N 57°41' E 011°53'0 0.0
2017-Nov-14 02:58N 57°41' E 011°53'0 0.0
2017-Nov-14 02:28N 57°41' E 011°53'0 0.0
2017-Nov-14 01:58N 57°41' E 011°53'0 0.0
2017-Nov-14 01:28N 57°41' E 011°53'0 0.0
2017-Nov-14 00:58N 57°41' E 011°53'0 0.0
2017-Nov-14 00:28N 57°41' E 011°53'0 0.0
2017-Nov-13 23:58N 57°41' E 011°53'0 0.0
2017-Nov-13 23:28N 57°41' E 011°53'0 0.0
2017-Nov-13 22:58N 57°41' E 011°53'0 0.0
2017-Nov-13 22:28N 57°41' E 011°53'0 0.0
2017-Nov-13 21:58N 57°41' E 011°53'11 0.6
2017-Nov-13 01:55N 57°34' E 011°38'0 0.0
2017-Nov-13 01:28N 57°34' E 011°38'0 0.0
2017-Nov-13 00:58N 57°34' E 011°38'0 0.0
2017-Nov-13 00:28N 57°34' E 011°38'0 0.0
2017-Nov-12 23:58N 57°34' E 011°38'0 0.0
2017-Nov-12 23:28N 57°34' E 011°38'0 0.0
2017-Nov-12 22:58N 57°34' E 011°38'0 0.0
2017-Nov-12 22:28N 57°34' E 011°38'0 0.0
2017-Nov-12 21:46N 57°34' E 011°38'0 0.0
2017-Nov-12 21:28N 57°34' E 011°38'0 0.0
2017-Nov-12 20:52N 57°34' E 011°38'0 0.0
2017-Nov-12 20:25N 57°34' E 011°38'0 0.0
2017-Nov-12 19:58N 57°34' E 011°38'0 0.0
2017-Nov-12 19:28N 57°34' E 011°38'0 0.0
2017-Nov-12 18:58N 57°34' E 011°38'0 0.0
2017-Nov-12 18:28N 57°34' E 011°38'0 0.1
2017-Nov-12 17:58N 57°34' E 011°38'0 0.0
2017-Nov-12 17:28N 57°34' E 011°38'0 0.0
2017-Nov-12 16:58N 57°34' E 011°38'0 0.1
2017-Nov-12 16:28N 57°34' E 011°38'0 0.0
2017-Nov-12 15:58N 57°34' E 011°38'0 0.0
2017-Nov-12 15:28N 57°34' E 011°38'0 0.0
2017-Nov-12 14:58N 57°34' E 011°38'0 0.2
2017-Nov-12 14:30N 57°34' E 011°38'3 6.1
2017-Nov-12 14:00N 57°31' E 011°38'510.5
2017-Nov-12 13:30N 57°25' E 011°38'611.2
2017-Nov-12 13:00N 57°20' E 011°37'611.4
2017-Nov-12 12:30N 57°14' E 011°37'611.5
2017-Nov-12 11:59N 57°08' E 011°40'611.6
2017-Nov-12 11:30N 57°03' E 011°43'104 2.3
2017-Nov-10 14:55N 55°21' E 011°02'510.8
2017-Nov-10 14:25N 55°16' E 011°05'410.1
2017-Nov-10 14:00N 55°12' E 011°06'611.3
2017-Nov-10 13:30N 55°06' E 011°03'611.7
2017-Nov-10 13:00N 55°01' E 011°02'611.3
2017-Nov-10 12:30N 54°56' E 010°56'611.4
2017-Nov-10 12:00N 54°51' E 010°53'611.6
2017-Nov-10 11:30N 54°45' E 010°53'510.5
2017-Nov-10 11:00N 54°41' E 010°58'611.6
2017-Nov-10 10:30N 54°37' E 011°07'611.4
2017-Nov-10 10:00N 54°35' E 011°15'611.6
2017-Nov-10 09:30N 54°32' E 011°24'510.9
2017-Nov-10 09:00N 54°30' E 011°33'510.7
2017-Nov-10 08:30N 54°27' E 011°41'510.6
2017-Nov-10 08:00N 54°26' E 011°50'510.9
2017-Nov-10 07:30N 54°26' E 011°59'6410.7
2017-Nov-10 01:30N 54°58' E 013°36'711.5
2017-Nov-10 00:54N 55°01' E 013°47'1310.6
2017-Nov-09 23:38N 55°07' E 014°07'411.0
2017-Nov-09 23:18N 55°10' E 014°11'310.6
2017-Nov-09 22:59N 55°12' E 014°16'810.7
2017-Nov-09 22:13N 55°19' E 014°25'210.8
2017-Nov-09 22:00N 55°21' E 014°27'510.2
2017-Nov-09 21:29N 55°25' E 014°33'5 9.6
2017-Nov-09 20:59N 55°28' E 014°40'710.0
2017-Nov-09 20:16N 55°31' E 014°51'310.2
2017-Nov-09 20:00N 55°32' E 014°55'510.2
2017-Nov-09 19:30N 55°35' E 015°03'510.1
2017-Nov-09 19:00N 55°37' E 015°11'510.1
2017-Nov-09 18:30N 55°40' E 015°18'510.3
2017-Nov-09 18:00N 55°42' E 015°26'510.3
2017-Nov-09 17:30N 55°45' E 015°34'510.4
2017-Nov-09 17:00N 55°48' E 015°42'510.3
2017-Nov-09 16:30N 55°51' E 015°50'510.4
2017-Nov-09 16:00N 55°53' E 015°58'510.6
2017-Nov-09 15:30N 55°56' E 016°06'510.5
2017-Nov-09 15:00N 55°59' E 016°14'510.5
2017-Nov-09 14:30N 56°01' E 016°22'510.6
2017-Nov-09 14:00N 56°04' E 016°30'510.6
2017-Nov-09 13:30N 56°07' E 016°38'510.7
2017-Nov-09 13:00N 56°10' E 016°46'510.9
2017-Nov-09 12:30N 56°15' E 016°49'611.3
2017-Nov-09 12:00N 56°21' E 016°53'3011.3
2017-Nov-09 09:20N 56°49' E 017°13'711.3
2017-Nov-09 08:45N 56°55' E 017°17'311.3
2017-Nov-09 08:30N 56°58' E 017°19'611.4
2017-Nov-09 07:59N 57°03' E 017°22'611.4
2017-Nov-09 07:28N 57°09' E 017°26'511.5
2017-Nov-09 07:00N 57°14' E 017°30'611.6
2017-Nov-09 06:27N 57°20' E 017°34'511.7
2017-Nov-09 06:00N 57°25' E 017°38'611.6
2017-Nov-09 05:30N 57°30' E 017°42'  
Track history (hours):
 
Tides and Currents Weather Stations Pressure Air Temp Water Temp Dewpoint Dewpoint Depression Visibility Wind Speed Wind Dir Waves Ship Positions

Ternholm

Last reported at 2017-Nov-19 05:29 UTC. Time now 2017-Nov-22 16:44 UTC.
Position N 60°25' E 019°02'.

Length 141 m; draft 8.5 m.

Type: Tanker. MMSI: 219076000.

Date/timePositionNaut miles runAvg speedWind from/ knotsBaromVisibWave heightAir tempDewpointWater temp
2017-Nov-19 05:29N 60°25' E 019°02'710.9
2017-Nov-19 04:51N 60°18' E 019°01'411.3
2017-Nov-19 04:30N 60°14' E 019°03'611.2
2017-Nov-19 04:00N 60°09' E 019°08'611.8
2017-Nov-19 03:30N 60°05' E 019°16'611.7
2017-Nov-19 03:00N 60°00' E 019°24'711.8
2017-Nov-19 02:23N 59°55' E 019°33'711.7
2017-Nov-19 01:50N 59°50' E 019°42'24711.1
2017-Nov-18 03:31N 56°02' E 016°43'011.9
2017-Nov-18 03:30N 56°02' E 016°43'611.8
2017-Nov-18 03:00N 55°59' E 016°34'611.8
2017-Nov-18 02:30N 55°57' E 016°24'611.8
2017-Nov-18 02:00N 55°54' E 016°15'611.8
2017-Nov-18 01:30N 55°51' E 016°06'611.8
2017-Nov-18 01:00N 55°47' E 015°57'611.8
2017-Nov-18 00:30N 55°44' E 015°48'611.8
2017-Nov-18 00:00N 55°41' E 015°40'611.8
2017-Nov-17 23:30N 55°39' E 015°30'611.8
2017-Nov-17 23:00N 55°36' E 015°21'611.8
2017-Nov-17 22:30N 55°34' E 015°11'611.8
2017-Nov-17 22:00N 55°31' E 015°02'611.8
2017-Nov-17 21:27N 55°28' E 014°52'511.8
2017-Nov-17 21:00N 55°25' E 014°44'611.6
2017-Nov-17 20:30N 55°22' E 014°36'611.8
2017-Nov-17 20:00N 55°17' E 014°31'611.8
2017-Nov-17 19:30N 55°12' E 014°24'611.8
2017-Nov-17 19:00N 55°07' E 014°17'611.8
2017-Nov-17 18:30N 55°03' E 014°11'5511.6
2017-Nov-17 13:46N 54°44' E 012°41'311.8
2017-Nov-17 13:30N 54°42' E 012°37'611.7
2017-Nov-17 13:00N 54°39' E 012°29'1411.4
2017-Nov-17 11:45N 54°27' E 012°14'311.7
2017-Nov-17 11:30N 54°25' E 012°11'611.5
2017-Nov-17 11:00N 54°25' E 012°01'1111.6
2017-Nov-17 10:06N 54°26' E 011°43'411.8
2017-Nov-17 09:48N 54°27' E 011°37'311.8
2017-Nov-17 09:30N 54°29' E 011°32'611.8
2017-Nov-17 09:00N 54°32' E 011°23'611.8
2017-Nov-17 08:31N 54°34' E 011°14'612.1
2017-Nov-17 08:00N 54°37' E 011°05'612.1
2017-Nov-17 07:30N 54°40' E 010°56'510.8
2017-Nov-17 07:00N 54°45' E 010°51'612.1
2017-Nov-17 06:30N 54°51' E 010°52'611.6
2017-Nov-17 06:00N 54°56' E 010°56'611.3
2017-Nov-17 05:30N 55°01' E 011°01'611.9
2017-Nov-17 05:00N 55°07' E 011°02'611.3
2017-Nov-17 04:30N 55°12' E 011°06'711.8
2017-Nov-17 03:56N 55°19' E 011°02'10110.4
2017-Nov-16 18:14N 56°57' E 011°45'311.2
2017-Nov-16 17:59N 56°60' E 011°43'511.2
2017-Nov-16 17:30N 57°05' E 011°39'611.6
2017-Nov-16 16:59N 57°10' E 011°36'611.5
2017-Nov-16 16:30N 57°16' E 011°32'511.1
2017-Nov-16 16:00N 57°21' E 011°32'611.2
2017-Nov-16 15:30N 57°27' E 011°34'510.6
2017-Nov-16 15:00N 57°32' E 011°35'510.0
2017-Nov-16 14:30N 57°36' E 011°39'510.3
2017-Nov-16 14:00N 57°40' E 011°47'3 6.9
2017-Nov-16 13:30N 57°41' E 011°52'0 0.0
2017-Nov-16 12:58N 57°41' E 011°52'0 0.0
2017-Nov-16 12:28N 57°41' E 011°52'0 0.0
2017-Nov-16 11:58N 57°41' E 011°52'0 0.0
2017-Nov-16 11:28N 57°41' E 011°52'0 0.0
2017-Nov-16 10:58N 57°41' E 011°52'0 0.0
2017-Nov-16 10:28N 57°41' E 011°52'0 0.0
2017-Nov-16 09:58N 57°41' E 011°52'0 0.0
2017-Nov-16 09:28N 57°41' E 011°52'0 0.0
2017-Nov-16 08:58N 57°41' E 011°52'0 0.0
2017-Nov-16 08:28N 57°41' E 011°52'0 0.0
2017-Nov-16 07:58N 57°41' E 011°52'0 0.0
2017-Nov-16 07:28N 57°41' E 011°52'0 0.0
2017-Nov-16 06:58N 57°41' E 011°52'0 0.0
2017-Nov-16 06:28N 57°41' E 011°52'0 0.0
2017-Nov-16 05:58N 57°41' E 011°52'0 0.0
2017-Nov-16 05:28N 57°41' E 011°52'0 0.0
2017-Nov-16 04:58N 57°41' E 011°52'0 0.0
2017-Nov-16 04:28N 57°41' E 011°52'0 0.0
2017-Nov-16 03:58N 57°41' E 011°52'0 0.0
2017-Nov-16 03:28N 57°41' E 011°52'0 0.0
2017-Nov-16 02:58N 57°41' E 011°52'0 0.0
2017-Nov-16 02:28N 57°41' E 011°52'0 0.0
2017-Nov-16 01:58N 57°41' E 011°52'0 0.0
2017-Nov-16 01:28N 57°41' E 011°52'0 0.0
2017-Nov-16 00:58N 57°41' E 011°52'0 0.0
2017-Nov-16 00:28N 57°41' E 011°52'0 0.0
2017-Nov-15 23:58N 57°41' E 011°52'0 0.0
2017-Nov-15 23:28N 57°41' E 011°52'0 0.0
2017-Nov-15 22:58N 57°41' E 011°52'0 0.0
2017-Nov-15 22:28N 57°41' E 011°52'0 0.0
2017-Nov-15 21:58N 57°41' E 011°52'0 0.0
2017-Nov-15 21:28N 57°41' E 011°52'0 0.0
2017-Nov-15 20:58N 57°41' E 011°52'0 0.0
2017-Nov-15 20:28N 57°41' E 011°52'0 0.0
2017-Nov-15 19:58N 57°41' E 011°52'0 0.0
2017-Nov-15 19:28N 57°41' E 011°52'0 0.0
2017-Nov-15 18:58N 57°41' E 011°52'0 0.0
2017-Nov-15 18:28N 57°41' E 011°52'0 0.0
2017-Nov-15 17:58N 57°41' E 011°52'0 0.0
2017-Nov-15 17:28N 57°41' E 011°52'0 0.0
2017-Nov-15 16:58N 57°41' E 011°52'0 0.0
2017-Nov-15 16:28N 57°41' E 011°52'0 0.0
2017-Nov-15 15:58N 57°41' E 011°52'0 0.0
2017-Nov-15 15:31N 57°41' E 011°52'0 0.0
2017-Nov-15 15:01N 57°41' E 011°52'0 0.0
2017-Nov-15 14:30N 57°41' E 011°52'0 0.0
2017-Nov-15 14:00N 57°41' E 011°52'0 0.0
2017-Nov-15 13:30N 57°41' E 011°52'0 0.0
2017-Nov-15 13:00N 57°41' E 011°52'0 0.0
2017-Nov-15 12:30N 57°41' E 011°52'0 0.0
2017-Nov-15 12:00N 57°41' E 011°52'0 0.0
2017-Nov-15 11:30N 57°41' E 011°52'0 0.0
2017-Nov-15 11:00N 57°41' E 011°52'0 0.0
2017-Nov-15 10:30N 57°41' E 011°52'0 0.0
2017-Nov-15 10:00N 57°41' E 011°52'0 0.0
2017-Nov-15 09:30N 57°41' E 011°52'0 0.0
2017-Nov-15 09:00N 57°41' E 011°52'0 0.0
2017-Nov-15 08:30N 57°41' E 011°52'0 0.0
2017-Nov-15 08:00N 57°41' E 011°52'0 0.0
2017-Nov-15 07:30N 57°41' E 011°52'0 0.0
2017-Nov-15 07:00N 57°41' E 011°52'0 0.0
2017-Nov-15 06:30N 57°41' E 011°52'0 0.0
2017-Nov-15 06:00N 57°41' E 011°52'0 0.0
2017-Nov-15 05:30N 57°41' E 011°52'0 0.0
2017-Nov-15 05:00N 57°41' E 011°52'0 0.0
2017-Nov-15 04:27N 57°41' E 011°52'0 0.0
2017-Nov-15 04:00N 57°41' E 011°52'0 0.0
2017-Nov-15 03:30N 57°41' E 011°52'0 0.0
2017-Nov-15 03:00N 57°41' E 011°52'0 0.0
2017-Nov-15 02:30N 57°41' E 011°52'0 0.0
2017-Nov-15 02:00N 57°41' E 011°52'0 0.0
2017-Nov-15 01:27N 57°41' E 011°52'0 0.0
2017-Nov-15 01:00N 57°41' E 011°52'0 0.0
2017-Nov-15 00:30N 57°41' E 011°52'0 0.0
2017-Nov-15 00:00N 57°41' E 011°52'0 0.0
2017-Nov-14 23:30N 57°41' E 011°52'0 0.0
2017-Nov-14 23:01N 57°41' E 011°52'0 0.4
2017-Nov-14 22:31N 57°41' E 011°53'0 0.0
2017-Nov-14 21:59N 57°41' E 011°53'0 0.0
2017-Nov-14 21:29N 57°41' E 011°53'0 0.0
2017-Nov-14 20:59N 57°41' E 011°53'0 0.0
2017-Nov-14 20:29N 57°41' E 011°53'0 0.0
2017-Nov-14 19:59N 57°41' E 011°53'0 0.0
2017-Nov-14 19:29N 57°41' E 011°53'0 0.0
2017-Nov-14 18:59N 57°41' E 011°53'0 0.0
2017-Nov-14 18:29N 57°41' E 011°53'0 0.0
2017-Nov-14 17:58N 57°41' E 011°53'0 0.0
2017-Nov-14 17:29N 57°41' E 011°53'0 0.0
2017-Nov-14 16:59N 57°41' E 011°53'0 0.0
2017-Nov-14 16:28N 57°41' E 011°53'0 0.0
2017-Nov-14 15:58N 57°41' E 011°53'0 0.0
2017-Nov-14 15:28N 57°41' E 011°53'0 0.0
2017-Nov-14 14:58N 57°41' E 011°53'0 0.0
2017-Nov-14 14:28N 57°41' E 011°53'0 0.0
2017-Nov-14 13:58N 57°41' E 011°53'0 0.0
2017-Nov-14 13:28N 57°41' E 011°53'0 0.0
2017-Nov-14 12:58N 57°41' E 011°53'0 0.0
2017-Nov-14 12:28N 57°41' E 011°53'0 0.0
2017-Nov-14 11:58N 57°41' E 011°53'0 0.0
2017-Nov-14 11:28N 57°41' E 011°53'0 0.0
2017-Nov-14 10:58N 57°41' E 011°53'0 0.0
2017-Nov-14 10:28N 57°41' E 011°53'0 0.0
2017-Nov-14 09:58N 57°41' E 011°53'0 0.0
2017-Nov-14 09:28N 57°41' E 011°53'0 0.0
2017-Nov-14 08:58N 57°41' E 011°53'0 0.0
2017-Nov-14 08:28N 57°41' E 011°53'0 0.0
2017-Nov-14 07:58N 57°41' E 011°53'0 0.0
2017-Nov-14 07:28N 57°41' E 011°53'0 0.0
2017-Nov-14 06:58N 57°41' E 011°53'0 0.0
2017-Nov-14 06:28N 57°41' E 011°53'0 0.0
2017-Nov-14 05:58N 57°41' E 011°53'0 0.0
2017-Nov-14 05:28N 57°41' E 011°53'0 0.0
2017-Nov-14 04:58N 57°41' E 011°53'0 0.0
2017-Nov-14 04:28N 57°41' E 011°53'0 0.0
2017-Nov-14 03:58N 57°41' E 011°53'0 0.0
2017-Nov-14 03:28N 57°41' E 011°53'0 0.0
2017-Nov-14 02:58N 57°41' E 011°53'0 0.0
2017-Nov-14 02:28N 57°41' E 011°53'0 0.0
2017-Nov-14 01:58N 57°41' E 011°53'0 0.0
2017-Nov-14 01:28N 57°41' E 011°53'0 0.0
2017-Nov-14 00:58N 57°41' E 011°53'0 0.0
2017-Nov-14 00:28N 57°41' E 011°53'0 0.0
2017-Nov-13 23:58N 57°41' E 011°53'0 0.0
2017-Nov-13 23:28N 57°41' E 011°53'0 0.0
2017-Nov-13 22:58N 57°41' E 011°53'0 0.0
2017-Nov-13 22:28N 57°41' E 011°53'0 0.0
2017-Nov-13 21:58N 57°41' E 011°53'11 0.6
2017-Nov-13 01:55N 57°34' E 011°38'0 0.0
2017-Nov-13 01:28N 57°34' E 011°38'0 0.0
2017-Nov-13 00:58N 57°34' E 011°38'0 0.0
2017-Nov-13 00:28N 57°34' E 011°38'0 0.0
2017-Nov-12 23:58N 57°34' E 011°38'0 0.0
2017-Nov-12 23:28N 57°34' E 011°38'0 0.0
2017-Nov-12 22:58N 57°34' E 011°38'0 0.0
2017-Nov-12 22:28N 57°34' E 011°38'0 0.0
2017-Nov-12 21:46N 57°34' E 011°38'0 0.0
2017-Nov-12 21:28N 57°34' E 011°38'0 0.0
2017-Nov-12 20:52N 57°34' E 011°38'0 0.0
2017-Nov-12 20:25N 57°34' E 011°38'0 0.0
2017-Nov-12 19:58N 57°34' E 011°38'0 0.0
2017-Nov-12 19:28N 57°34' E 011°38'0 0.0
2017-Nov-12 18:58N 57°34' E 011°38'0 0.0
2017-Nov-12 18:28N 57°34' E 011°38'0 0.1
2017-Nov-12 17:58N 57°34' E 011°38'0 0.0
2017-Nov-12 17:28N 57°34' E 011°38'0 0.0
2017-Nov-12 16:58N 57°34' E 011°38'0 0.1
2017-Nov-12 16:28N 57°34' E 011°38'0 0.0
2017-Nov-12 15:58N 57°34' E 011°38'0 0.0
2017-Nov-12 15:28N 57°34' E 011°38'0 0.0
2017-Nov-12 14:58N 57°34' E 011°38'0 0.2
2017-Nov-12 14:30N 57°34' E 011°38'3 6.1
2017-Nov-12 14:00N 57°31' E 011°38'510.5
2017-Nov-12 13:30N 57°25' E 011°38'611.2
2017-Nov-12 13:00N 57°20' E 011°37'611.4
2017-Nov-12 12:30N 57°14' E 011°37'611.5
2017-Nov-12 11:59N 57°08' E 011°40'611.6
2017-Nov-12 11:30N 57°03' E 011°43'104 2.3
2017-Nov-10 14:55N 55°21' E 011°02'510.8
2017-Nov-10 14:25N 55°16' E 011°05'410.1
2017-Nov-10 14:00N 55°12' E 011°06'611.3
2017-Nov-10 13:30N 55°06' E 011°03'611.7
2017-Nov-10 13:00N 55°01' E 011°02'611.3
2017-Nov-10 12:30N 54°56' E 010°56'611.4
2017-Nov-10 12:00N 54°51' E 010°53'611.6
2017-Nov-10 11:30N 54°45' E 010°53'510.5
2017-Nov-10 11:00N 54°41' E 010°58'611.6
2017-Nov-10 10:30N 54°37' E 011°07'611.4
2017-Nov-10 10:00N 54°35' E 011°15'611.6
2017-Nov-10 09:30N 54°32' E 011°24'510.9
2017-Nov-10 09:00N 54°30' E 011°33'510.7
2017-Nov-10 08:30N 54°27' E 011°41'510.6
2017-Nov-10 08:00N 54°26' E 011°50'510.9
2017-Nov-10 07:30N 54°26' E 011°59'6410.7
2017-Nov-10 01:30N 54°58' E 013°36'711.5
2017-Nov-10 00:54N 55°01' E 013°47'1310.6
2017-Nov-09 23:38N 55°07' E 014°07'411.0
2017-Nov-09 23:18N 55°10' E 014°11'310.6
2017-Nov-09 22:59N 55°12' E 014°16'810.7
2017-Nov-09 22:13N 55°19' E 014°25'210.8
2017-Nov-09 22:00N 55°21' E 014°27'510.2
2017-Nov-09 21:29N 55°25' E 014°33'5 9.6
2017-Nov-09 20:59N 55°28' E 014°40'710.0
2017-Nov-09 20:16N 55°31' E 014°51'310.2
2017-Nov-09 20:00N 55°32' E 014°55'510.2
2017-Nov-09 19:30N 55°35' E 015°03'510.1
2017-Nov-09 19:00N 55°37' E 015°11'510.1
2017-Nov-09 18:30N 55°40' E 015°18'510.3
2017-Nov-09 18:00N 55°42' E 015°26'510.3
2017-Nov-09 17:30N 55°45' E 015°34'510.4
2017-Nov-09 17:00N 55°48' E 015°42'510.3
2017-Nov-09 16:30N 55°51' E 015°50'510.4
2017-Nov-09 16:00N 55°53' E 015°58'510.6
2017-Nov-09 15:30N 55°56' E 016°06'510.5
2017-Nov-09 15:00N 55°59' E 016°14'510.5
2017-Nov-09 14:30N 56°01' E 016°22'510.6
2017-Nov-09 14:00N 56°04' E 016°30'510.6
2017-Nov-09 13:30N 56°07' E 016°38'510.7
2017-Nov-09 13:00N 56°10' E 016°46'510.9
2017-Nov-09 12:30N 56°15' E 016°49'611.3
2017-Nov-09 12:00N 56°21' E 016°53'3011.3
2017-Nov-09 09:20N 56°49' E 017°13'711.3
2017-Nov-09 08:45N 56°55' E 017°17'311.3
2017-Nov-09 08:30N 56°58' E 017°19'611.4
2017-Nov-09 07:59N 57°03' E 017°22'611.4
2017-Nov-09 07:28N 57°09' E 017°26'511.5
2017-Nov-09 07:00N 57°14' E 017°30'611.6
2017-Nov-09 06:27N 57°20' E 017°34'511.7
2017-Nov-09 06:00N 57°25' E 017°38'611.6
2017-Nov-09 05:30N 57°30' E 017°42'  

Dump ship's entire track history